To NAV CANADA Home Page Login to a new session Search on AWWS site Feedback and Comments Disclaimer Vers la page française équivalente Tips FAQ What's new on the site To the Forecasts and Observations / NOTAM section To "File a Flight Plan" website Publications and other links Update of the User's profile FIC Telephone Numbers My Weather Data Folder Route Weather Data Regional Weather Data Local Weather Data To the Forecasts and Observations / NOTAM section
Request Generated 05/27/2015 at 19:42:48 UTC . Weather information available at that time is displayed.

METAR/TAF

WHITEHORSE/ERIK NIELSEN INTL/YT    

METAR CYXY 271900Z VRB02KT 30SM SCT014 BKN045 OVC220 11/06 A3011 RMK
CU4SC3CI1 SLP214=
SPECI CYXY 271822Z 36002KT 30SM SCT012 BKN040 OVC200 10/06 A3010 RMK
CF3SC4CI1 SLP212=
METAR CYXY 271800Z 36003KT 30SM FEW008 BKN040 OVC200 09/07 A3009 RMK
SF2SC4CI2 SLP210=
SPECI CYXY 271754Z 34003KT 30SM FEW008 BKN040 OVC200 09/07 A3009 RMK
SF2SC4CI2 SLP208=
METAR CYXY 271700Z 35003KT 20SM -SHRA FEW008 SCT030 OVC045 08/07
A3008 RMK SF2SC2SC4 SLP206=

TAF CYXY 271738Z 2718/2818 36005KT P6SM BKN050 TEMPO 2718/2803 P6SM
-SHRA
FM280600 VRB03KT P6SM SCT040 BKN090
FM281400 18005KT P6SM SCT040
RMK NXT FCST BY 280000Z=
Your time UTC time
Weather data provided by Environment Canada and NAV CANADA